sensor_id;sensor_type;location;lat;lon;timestamp;pressure;altitude;pressure_sealevel;temperature;humidity
77120;BME280;66073;47.730;9.352;2023-04-15T00:01:27;95789.31;;;2.37;75.45
77120;BME280;66073;47.730;9.352;2023-04-15T00:03:53;95792.94;;;2.53;74.96
77120;BME280;66073;47.730;9.352;2023-04-15T00:06:20;95800.16;;;2.41;75.34
77120;BME280;66073;47.730;9.352;2023-04-15T00:08:47;95800.03;;;2.31;76.54
77120;BME280;66073;47.730;9.352;2023-04-15T00:11:13;95789.00;;;2.34;75.89
77120;BME280;66073;47.730;9.352;2023-04-15T00:13:39;95795.88;;;2.35;75.81
77120;BME280;66073;47.730;9.352;2023-04-15T00:16:06;95784.56;;;2.34;74.76
77120;BME280;66073;47.730;9.352;2023-04-15T00:18:33;95792.81;;;2.43;74.89
77120;BME280;66073;47.730;9.352;2023-04-15T00:20:58;95792.69;;;2.33;75.54
77120;BME280;66073;47.730;9.352;2023-04-15T00:23:24;95793.25;;;2.35;76.01
77120;BME280;66073;47.730;9.352;2023-04-15T00:25:50;95798.56;;;2.40;75.83
77120;BME280;66073;47.730;9.352;2023-04-15T00:28:16;95804.13;;;2.43;75.86
77120;BME280;66073;47.730;9.352;2023-04-15T00:30:42;95791.66;;;2.56;75.09
77120;BME280;66073;47.730;9.352;2023-04-15T00:33:08;95789.22;;;2.49;75.05
77120;BME280;66073;47.730;9.352;2023-04-15T00:35:34;95791.28;;;2.47;75.18
77120;BME280;66073;47.730;9.352;2023-04-15T00:38:02;95790.41;;;2.20;76.24
77120;BME280;66073;47.730;9.352;2023-04-15T00:40:29;95785.06;;;2.53;75.69
77120;BME280;66073;47.730;9.352;2023-04-15T00:42:55;95795.72;;;2.25;75.60
77120;BME280;66073;47.730;9.352;2023-04-15T00:45:20;95793.84;;;2.04;76.89
77120;BME280;66073;47.730;9.352;2023-04-15T00:47:46;95791.16;;;1.98;76.72
77120;BME280;66073;47.730;9.352;2023-04-15T00:50:11;95798.03;;;1.99;76.47
77120;BME280;66073;47.730;9.352;2023-04-15T00:52:37;95795.19;;;1.84;77.33
77120;BME280;66073;47.730;9.352;2023-04-15T00:55:04;95785.91;;;1.98;77.16
77120;BME280;66073;47.730;9.352;2023-04-15T00:57:30;95796.91;;;1.95;76.56
77120;BME280;66073;47.730;9.352;2023-04-15T00:59:57;95795.81;;;1.91;76.91
77120;BME280;66073;47.730;9.352;2023-04-15T01:02:23;95794.09;;;1.64;77.97
77120;BME280;66073;47.730;9.352;2023-04-15T01:04:49;95795.13;;;1.46;78.96
77120;BME280;66073;47.730;9.352;2023-04-15T01:07:15;95797.09;;;1.56;79.24
77120;BME280;66073;47.730;9.352;2023-04-15T01:09:41;95795.16;;;1.68;78.54
77120;BME280;66073;47.730;9.352;2023-04-15T01:12:11;95791.84;;;2.11;77.42
77120;BME280;66073;47.730;9.352;2023-04-15T01:14:36;95793.91;;;1.70;77.48
77120;BME280;66073;47.730;9.352;2023-04-15T01:17:02;95798.34;;;1.86;77.58
77120;BME280;66073;47.730;9.352;2023-04-15T01:19:28;95794.56;;;2.16;77.06
77120;BME280;66073;47.730;9.352;2023-04-15T01:21:55;95792.69;;;2.33;75.66
77120;BME280;66073;47.730;9.352;2023-04-15T01:24:22;95794.81;;;2.36;74.75
77120;BME280;66073;47.730;9.352;2023-04-15T01:26:48;95795.34;;;1.78;76.50
77120;BME280;66073;47.730;9.352;2023-04-15T01:29:15;95796.06;;;1.73;76.93
77120;BME280;66073;47.730;9.352;2023-04-15T01:31:48;95793.75;;;1.77;76.57
77120;BME280;66073;47.730;9.352;2023-04-15T01:34:14;95788.47;;;1.77;76.73
77120;BME280;66073;47.730;9.352;2023-04-15T01:36:40;95787.84;;;1.70;77.48
77120;BME280;66073;47.730;9.352;2023-04-15T01:39:06;95795.13;;;1.46;78.39
77120;BME280;66073;47.730;9.352;2023-04-15T01:41:31;95786.25;;;1.35;78.92
77120;BME280;66073;47.730;9.352;2023-04-15T01:43:57;95789.09;;;1.17;79.46
77120;BME280;66073;47.730;9.352;2023-04-15T01:46:22;95787.69;;;1.26;79.78
77120;BME280;66073;47.730;9.352;2023-04-15T01:48:48;95791.50;;;1.69;79.04
77120;BME280;66073;47.730;9.352;2023-04-15T01:51:13;95791.81;;;1.72;77.70
77120;BME280;66073;47.730;9.352;2023-04-15T01:53:39;95804.41;;;1.20;78.72
77120;BME280;66073;47.730;9.352;2023-04-15T01:56:05;95803.91;;;1.07;79.91
77120;BME280;66073;47.730;9.352;2023-04-15T01:58:31;95803.78;;;1.02;80.46
77120;BME280;66073;47.730;9.352;2023-04-15T02:00:57;95807.19;;;1.14;80.18
77120;BME280;66073;47.730;9.352;2023-04-15T02:03:23;95807.81;;;1.21;80.05
77120;BME280;66073;47.730;9.352;2023-04-15T02:05:49;95810.47;;;1.21;80.19
77120;BME280;66073;47.730;9.352;2023-04-15T02:08:15;95810.47;;;1.21;79.69
77120;BME280;66073;47.730;9.352;2023-04-15T02:10:41;95805.94;;;1.05;80.22
77120;BME280;66073;47.730;9.352;2023-04-15T02:13:06;95814.81;;;1.60;79.49
77120;BME280;66073;47.730;9.352;2023-04-15T02:15:32;95808.75;;;1.15;79.23
77120;BME280;66073;47.730;9.352;2023-04-15T02:17:58;95819.72;;;1.40;79.56
77120;BME280;66073;47.730;9.352;2023-04-15T02:20:25;95817.00;;;1.35;78.29
77120;BME280;66073;47.730;9.352;2023-04-15T02:22:50;95809.41;;;1.22;78.82
77120;BME280;66073;47.730;9.352;2023-04-15T02:25:16;95815.88;;;1.31;78.65
77120;BME280;66073;47.730;9.352;2023-04-15T02:27:42;95804.34;;;1.04;79.31
77120;BME280;66073;47.730;9.352;2023-04-15T02:30:09;95815.94;;;0.91;80.00
77120;BME280;66073;47.730;9.352;2023-04-15T02:32:36;95815.94;;;0.91;80.28
77120;BME280;66073;47.730;9.352;2023-04-15T02:35:03;95813.28;;;1.03;79.97
77120;BME280;66073;47.730;9.352;2023-04-15T02:37:30;95811.81;;;0.95;79.59
77120;BME280;66073;47.730;9.352;2023-04-15T02:39:56;95814.69;;;0.93;79.20
77120;BME280;66073;47.730;9.352;2023-04-15T02:42:21;95808.63;;;0.93;78.36
77120;BME280;66073;47.730;9.352;2023-04-15T02:44:47;95816.09;;;0.84;79.56
77120;BME280;66073;47.730;9.352;2023-04-15T02:47:12;95813.88;;;0.93;80.00
77120;BME280;66073;47.730;9.352;2023-04-15T02:49:39;95816.69;;;1.31;79.23
77120;BME280;66073;47.730;9.352;2023-04-15T02:52:05;95823.19;;;1.29;78.78
77120;BME280;66073;47.730;9.352;2023-04-15T02:54:31;95812.03;;;0.65;80.06
77120;BME280;66073;47.730;9.352;2023-04-15T02:56:58;95814.75;;;1.10;79.74
77120;BME280;66073;47.730;9.352;2023-04-15T02:59:24;95811.97;;;0.88;79.42
77120;BME280;66073;47.730;9.352;2023-04-15T03:01:49;95812.88;;;0.82;79.48
77120;BME280;66073;47.730;9.352;2023-04-15T03:04:15;95811.78;;;0.78;78.99
77120;BME280;66073;47.730;9.352;2023-04-15T03:06:40;95814.97;;;0.80;79.31
77120;BME280;66073;47.730;9.352;2023-04-15T03:09:06;95820.06;;;0.87;79.10
77120;BME280;66073;47.730;9.352;2023-04-15T03:11:32;95811.66;;;0.85;79.33
77120;BME280;66073;47.730;9.352;2023-04-15T03:13:57;95809.91;;;0.90;79.24
77120;BME280;66073;47.730;9.352;2023-04-15T03:16:23;95814.13;;;0.91;79.27
77120;BME280;66073;47.730;9.352;2023-04-15T03:18:50;95820.88;;;0.87;78.84
77120;BME280;66073;47.730;9.352;2023-04-15T03:21:15;95813.53;;;0.89;78.97
77120;BME280;66073;47.730;9.352;2023-04-15T03:23:41;95820.59;;;1.00;79.01
77120;BME280;66073;47.730;9.352;2023-04-15T03:26:06;95814.97;;;0.80;79.76
77120;BME280;66073;47.730;9.352;2023-04-15T03:28:32;95816.78;;;0.80;79.74
77120;BME280;66073;47.730;9.352;2023-04-15T03:30:58;95813.28;;;1.03;79.32
77120;BME280;66073;47.730;9.352;2023-04-15T03:33:23;95812.47;;;1.02;78.47
77120;BME280;66073;47.730;9.352;2023-04-15T03:35:50;95817.38;;;1.10;78.33
77120;BME280;66073;47.730;9.352;2023-04-15T03:38:16;95813.47;;;0.84;78.63
77120;BME280;66073;47.730;9.352;2023-04-15T03:40:42;95823.16;;;0.44;79.97
77120;BME280;66073;47.730;9.352;2023-04-15T03:43:08;95810.38;;;0.36;80.65
77120;BME280;66073;47.730;9.352;2023-04-15T03:45:34;95813.75;;;0.20;81.12
77120;BME280;66073;47.730;9.352;2023-04-15T03:47:59;95820.00;;;0.19;81.85
77120;BME280;66073;47.730;9.352;2023-04-15T03:50:25;95820.25;;;0.17;82.13
77120;BME280;66073;47.730;9.352;2023-04-15T03:52:51;95819.53;;;0.33;81.76
77120;BME280;66073;47.730;9.352;2023-04-15T03:55:16;95821.88;;;0.07;82.09
77120;BME280;66073;47.730;9.352;2023-04-15T03:57:42;95833.38;;;0.06;82.69
77120;BME280;66073;47.730;9.352;2023-04-15T04:00:08;95822.16;;;0.22;82.73
77120;BME280;66073;47.730;9.352;2023-04-15T04:02:34;95830.06;;;0.10;82.52
77120;BME280;66073;47.730;9.352;2023-04-15T04:05:00;95821.97;;;0.12;82.71
77120;BME280;66073;47.730;9.352;2023-04-15T04:07:26;95826.31;;;0.18;82.42
77120;BME280;66073;47.730;9.352;2023-04-15T04:09:51;95827.88;;;0.19;82.32
77120;BME280;66073;47.730;9.352;2023-04-15T04:12:16;95837.56;;;0.18;82.13
77120;BME280;66073;47.730;9.352;2023-04-15T04:14:42;95827.66;;;0.32;81.39
77120;BME280;66073;47.730;9.352;2023-04-15T04:17:07;95830.50;;;0.42;80.98
77120;BME280;66073;47.730;9.352;2023-04-15T04:19:33;95835.06;;;0.23;80.80
77120;BME280;66073;47.730;9.352;2023-04-15T04:21:58;95840.88;;;0.25;81.57
77120;BME280;66073;47.730;9.352;2023-04-15T04:24:24;95837.13;;;0.21;81.17
77120;BME280;66073;47.730;9.352;2023-04-15T04:26:50;95839.06;;;0.26;80.29
77120;BME280;66073;47.730;9.352;2023-04-15T04:29:16;95838.59;;;0.29;80.45
77120;BME280;66073;47.730;9.352;2023-04-15T04:31:41;95837.00;;;0.28;80.59
77120;BME280;66073;47.730;9.352;2023-04-15T04:34:07;95834.38;;;0.28;79.95
77120;BME280;66073;47.730;9.352;2023-04-15T04:36:32;95833.69;;;0.32;80.25
77120;BME280;66073;47.730;9.352;2023-04-15T04:38:59;95837.44;;;0.48;79.92
77120;BME280;66073;47.730;9.352;2023-04-15T04:41:25;95833.09;;;0.42;79.62
77120;BME280;66073;47.730;9.352;2023-04-15T04:43:51;95837.44;;;0.48;80.05
77120;BME280;66073;47.730;9.352;2023-04-15T04:46:17;95831.47;;;0.64;80.41
77120;BME280;66073;47.730;9.352;2023-04-15T04:48:42;95835.72;;;0.42;80.69
77120;BME280;66073;47.730;9.352;2023-04-15T04:51:08;95836.94;;;1.03;79.70
77120;BME280;66073;47.730;9.352;2023-04-15T04:53:34;95840.75;;;0.83;78.88
77120;BME280;66073;47.730;9.352;2023-04-15T04:56:00;95839.97;;;0.20;79.82
77120;BME280;66073;47.730;9.352;2023-04-15T04:58:25;95839.88;;;0.03;81.36
77120;BME280;66073;47.730;9.352;2023-04-15T05:00:51;95844.53;;;-0.11;82.16
77120;BME280;66073;47.730;9.352;2023-04-15T05:03:17;95835.09;;;0.00;82.44
77120;BME280;66073;47.730;9.352;2023-04-15T05:05:42;95842.59;;;0.20;81.83
77120;BME280;66073;47.730;9.352;2023-04-15T05:08:08;95832.78;;;0.27;81.82
77120;BME280;66073;47.730;9.352;2023-04-15T05:10:33;95840.66;;;0.27;81.44
77120;BME280;66073;47.730;9.352;2023-04-15T05:12:59;95836.22;;;0.16;81.71
77120;BME280;66073;47.730;9.352;2023-04-15T05:15:25;95837.09;;;0.33;81.85
77120;BME280;66073;47.730;9.352;2023-04-15T05:17:50;95829.81;;;0.35;81.37
77120;BME280;66073;47.730;9.352;2023-04-15T05:20:15;95835.63;;;0.37;81.75
77120;BME280;66073;47.730;9.352;2023-04-15T05:22:41;95836.56;;;0.31;82.26
77120;BME280;66073;47.730;9.352;2023-04-15T05:25:07;95831.72;;;0.51;81.84
77120;BME280;66073;47.730;9.352;2023-04-15T05:27:34;95837.81;;;0.68;81.60
77120;BME280;66073;47.730;9.352;2023-04-15T05:29:59;95847.38;;;1.14;80.08
77120;BME280;66073;47.730;9.352;2023-04-15T05:32:25;95846.66;;;0.90;80.25
77120;BME280;66073;47.730;9.352;2023-04-15T05:34:50;95857.94;;;0.63;81.39
77120;BME280;66073;47.730;9.352;2023-04-15T05:37:16;95857.69;;;1.04;80.71
77120;BME280;66073;47.730;9.352;2023-04-15T05:39:41;95857.09;;;1.14;79.99
77120;BME280;66073;47.730;9.352;2023-04-15T05:42:07;95855.13;;;1.21;80.07
77120;BME280;66073;47.730;9.352;2023-04-15T05:44:32;95846.00;;;1.40;80.07
77120;BME280;66073;47.730;9.352;2023-04-15T05:46:58;95852.09;;;1.74;79.11
77120;BME280;66073;47.730;9.352;2023-04-15T05:49:23;95849.28;;;2.14;77.13
77120;BME280;66073;47.730;9.352;2023-04-15T05:51:49;95847.22;;;2.16;77.06
77120;BME280;66073;47.730;9.352;2023-04-15T05:54:15;95849.22;;;1.59;78.50
77120;BME280;66073;47.730;9.352;2023-04-15T05:56:41;95841.69;;;1.34;79.60
77120;BME280;66073;47.730;9.352;2023-04-15T05:59:06;95851.09;;;1.02;81.15
77120;BME280;66073;47.730;9.352;2023-04-15T06:01:33;95848.81;;;1.22;81.57
77120;BME280;66073;47.730;9.352;2023-04-15T06:03:59;95848.72;;;1.45;81.16
77120;BME280;66073;47.730;9.352;2023-04-15T06:06:24;95846.31;;;1.43;80.69
77120;BME280;66073;47.730;9.352;2023-04-15T06:08:51;95846.03;;;1.57;80.68
77120;BME280;66073;47.730;9.352;2023-04-15T06:11:19;95841.56;;;1.74;80.41
77120;BME280;66073;47.730;9.352;2023-04-15T06:13:45;95843.16;;;1.58;80.62
77120;BME280;66073;47.730;9.352;2023-04-15T06:16:10;95848.66;;;1.73;81.01
77120;BME280;66073;47.730;9.352;2023-04-15T06:18:36;95853.28;;;1.83;81.05
77120;BME280;66073;47.730;9.352;2023-04-15T06:21:01;95848.19;;;1.76;81.00
77120;BME280;66073;47.730;9.352;2023-04-15T06:23:27;95845.84;;;1.96;80.94
77120;BME280;66073;47.730;9.352;2023-04-15T06:25:52;95844.34;;;2.00;81.00
77120;BME280;66073;47.730;9.352;2023-04-15T06:28:18;95849.03;;;2.32;80.45
77120;BME280;66073;47.730;9.352;2023-04-15T06:30:43;95847.97;;;2.33;79.90
77120;BME280;66073;47.730;9.352;2023-04-15T06:33:09;95846.59;;;2.90;78.70
77120;BME280;66073;47.730;9.352;2023-04-15T06:35:35;95853.91;;;3.32;77.19
77120;BME280;66073;47.730;9.352;2023-04-15T06:38:00;95852.72;;;3.44;76.46
77120;BME280;66073;47.730;9.352;2023-04-15T06:40:25;95863.06;;;3.78;74.64
77120;BME280;66073;47.730;9.352;2023-04-15T06:42:52;95862.66;;;3.64;74.48
77120;BME280;66073;47.730;9.352;2023-04-15T06:45:17;95857.19;;;3.17;75.82
77120;BME280;66073;47.730;9.352;2023-04-15T06:47:42;95864.84;;;3.72;75.07
77120;BME280;66073;47.730;9.352;2023-04-15T06:50:08;95858.34;;;3.53;74.36
77120;BME280;66073;47.730;9.352;2023-04-15T06:52:41;95864.75;;;3.35;75.76
77120;BME280;66073;47.730;9.352;2023-04-15T06:55:08;95863.47;;;3.38;75.97
77120;BME280;66073;47.730;9.352;2023-04-15T06:57:34;95855.38;;;3.76;75.57
77120;BME280;66073;47.730;9.352;2023-04-15T06:59:59;95862.84;;;4.21;74.84
77120;BME280;66073;47.730;9.352;2023-04-15T07:02:25;95857.50;;;4.53;72.83
77120;BME280;66073;47.730;9.352;2023-04-15T07:04:51;95863.53;;;4.95;71.78
77120;BME280;66073;47.730;9.352;2023-04-15T07:07:17;95863.88;;;5.19;70.56
77120;BME280;66073;47.730;9.352;2023-04-15T07:09:42;95859.34;;;5.05;70.04
77120;BME280;66073;47.730;9.352;2023-04-15T07:12:08;95862.19;;;4.41;72.04
77120;BME280;66073;47.730;9.352;2023-04-15T07:14:34;95853.22;;;4.42;73.43
77120;BME280;66073;47.730;9.352;2023-04-15T07:17:00;95860.09;;;4.43;73.44
77120;BME280;66073;47.730;9.352;2023-04-15T07:19:26;95854.81;;;5.00;72.55
77120;BME280;66073;47.730;9.352;2023-04-15T07:21:52;95857.59;;;5.50;70.98
77120;BME280;66073;47.730;9.352;2023-04-15T07:24:17;95851.50;;;5.35;70.85
77120;BME280;66073;47.730;9.352;2023-04-15T07:26:44;95852.03;;;5.47;70.21
77120;BME280;66073;47.730;9.352;2023-04-15T07:29:09;95854.44;;;5.48;70.19
77120;BME280;66073;47.730;9.352;2023-04-15T07:31:35;95848.88;;;5.50;71.03
77120;BME280;66073;47.730;9.352;2023-04-15T07:34:03;95850.97;;;5.43;71.42
77120;BME280;66073;47.730;9.352;2023-04-15T07:36:29;95852.34;;;5.76;71.95
77120;BME280;66073;47.730;9.352;2023-04-15T07:38:55;95856.06;;;5.70;71.14
77120;BME280;66073;47.730;9.352;2023-04-15T07:41:21;95855.53;;;5.73;72.10
77120;BME280;66073;47.730;9.352;2023-04-15T07:43:46;95852.13;;;6.03;70.76
77120;BME280;66073;47.730;9.352;2023-04-15T07:46:13;95861.88;;;5.82;70.55
77120;BME280;66073;47.730;9.352;2023-04-15T07:48:39;95855.81;;;5.81;70.08
77120;BME280;66073;47.730;9.352;2023-04-15T07:51:04;95855.56;;;6.13;68.66
77120;BME280;66073;47.730;9.352;2023-04-15T07:53:30;95855.00;;;6.36;68.41
77120;BME280;66073;47.730;9.352;2023-04-15T07:55:57;95849.91;;;6.65;67.03
77120;BME280;66073;47.730;9.352;2023-04-15T07:58:22;95842.22;;;6.74;66.59
77120;BME280;66073;47.730;9.352;2023-04-15T08:00:48;95844.16;;;7.17;64.69
77120;BME280;66073;47.730;9.352;2023-04-15T08:03:14;95849.78;;;7.60;61.46
77120;BME280;66073;47.730;9.352;2023-04-15T08:05:39;95841.38;;;6.83;62.50
77120;BME280;66073;47.730;9.352;2023-04-15T08:08:05;95844.31;;;7.41;63.38
77120;BME280;66073;47.730;9.352;2023-04-15T08:10:31;95837.66;;;7.82;62.03
77120;BME280;66073;47.730;9.352;2023-04-15T08:12:56;95834.25;;;7.77;61.69
77120;BME280;66073;47.730;9.352;2023-04-15T08:15:22;95831.38;;;8.36;58.45
77120;BME280;66073;47.730;9.352;2023-04-15T08:17:48;95835.06;;;8.69;56.55
77120;BME280;66073;47.730;9.352;2023-04-15T08:20:14;95830.06;;;8.62;57.12
77120;BME280;66073;47.730;9.352;2023-04-15T08:22:39;95838.00;;;8.10;58.34
77120;BME280;66073;47.730;9.352;2023-04-15T08:25:05;95830.59;;;8.88;57.19
77120;BME280;66073;47.730;9.352;2023-04-15T08:27:31;95832.38;;;8.45;59.06
77120;BME280;66073;47.730;9.352;2023-04-15T08:29:56;95828.34;;;8.48;60.50
77120;BME280;66073;47.730;9.352;2023-04-15T08:32:22;95824.97;;;8.89;61.90
77120;BME280;66073;47.730;9.352;2023-04-15T08:34:48;95829.38;;;8.52;59.14
77120;BME280;66073;47.730;9.352;2023-04-15T08:37:13;95830.78;;;8.68;58.22
77120;BME280;66073;47.730;9.352;2023-04-15T08:39:39;95829.50;;;9.13;58.45
77120;BME280;66073;47.730;9.352;2023-04-15T08:42:11;95834.72;;;8.75;58.21
77120;BME280;66073;47.730;9.352;2023-04-15T08:44:37;95831.50;;;8.50;58.71
77120;BME280;66073;47.730;9.352;2023-04-15T08:47:07;95830.56;;;9.12;57.97
77120;BME280;66073;47.730;9.352;2023-04-15T08:49:38;95829.06;;;9.24;56.85
77120;BME280;66073;47.730;9.352;2023-04-15T08:52:05;95835.06;;;9.54;56.67
77120;BME280;66073;47.730;9.352;2023-04-15T08:54:30;95830.59;;;8.88;59.21
77120;BME280;66073;47.730;9.352;2023-04-15T08:56:57;95834.16;;;9.21;57.41
77120;BME280;66073;47.730;9.352;2023-04-15T08:59:23;95840.69;;;9.52;56.96
77120;BME280;66073;47.730;9.352;2023-04-15T09:01:49;95833.06;;;10.34;55.98
77120;BME280;66073;47.730;9.352;2023-04-15T09:04:15;95831.66;;;10.23;56.11
77120;BME280;66073;47.730;9.352;2023-04-15T09:06:42;95832.06;;;9.18;57.92
77120;BME280;66073;47.730;9.352;2023-04-15T09:09:07;95826.34;;;9.85;55.81
77120;BME280;66073;47.730;9.352;2023-04-15T09:11:33;95833.84;;;9.83;57.26
77120;BME280;66073;47.730;9.352;2023-04-15T09:13:59;95831.03;;;8.95;58.10
77120;BME280;66073;47.730;9.352;2023-04-15T09:16:24;95831.28;;;10.43;54.64
77120;BME280;66073;47.730;9.352;2023-04-15T09:18:51;95832.19;;;9.87;56.05
77120;BME280;66073;47.730;9.352;2023-04-15T09:21:17;95839.03;;;10.72;55.36
77120;BME280;66073;47.730;9.352;2023-04-15T09:26:36;95841.41;;;11.28;51.29
77120;BME280;66073;47.730;9.352;2023-04-15T09:29:09;95838.88;;;11.09;49.63
77120;BME280;66073;47.730;9.352;2023-04-15T09:31:38;95844.09;;;10.73;50.55
77120;BME280;66073;47.730;9.352;2023-04-15T09:34:05;95844.19;;;11.36;50.38
77120;BME280;66073;47.730;9.352;2023-04-15T09:36:53;95842.91;;;11.20;50.73
77120;BME280;66073;47.730;9.352;2023-04-15T09:39:19;95843.31;;;11.14;49.51
77120;BME280;66073;47.730;9.352;2023-04-15T09:41:44;95843.38;;;11.36;49.37
77120;BME280;66073;47.730;9.352;2023-04-15T09:44:23;95843.78;;;11.43;49.44
77120;BME280;66073;47.730;9.352;2023-04-15T09:46:49;95846.94;;;11.31;50.61
77120;BME280;66073;47.730;9.352;2023-04-15T09:49:14;95850.97;;;11.70;48.71
77120;BME280;66073;47.730;9.352;2023-04-15T09:51:42;95852.63;;;11.79;48.70
77120;BME280;66073;47.730;9.352;2023-04-15T09:54:08;95854.03;;;11.77;48.53
77120;BME280;66073;47.730;9.352;2023-04-15T09:56:38;95853.16;;;12.04;47.78
77120;BME280;66073;47.730;9.352;2023-04-15T09:59:09;95846.50;;;11.65;49.36
77120;BME280;66073;47.730;9.352;2023-04-15T10:01:35;95845.19;;;11.00;50.74
77120;BME280;66073;47.730;9.352;2023-04-15T10:04:03;95849.22;;;11.52;48.65
77120;BME280;66073;47.730;9.352;2023-04-15T10:06:29;95842.75;;;11.66;48.28
77120;BME280;66073;47.730;9.352;2023-04-15T10:08:57;95840.47;;;12.09;48.69
77120;BME280;66073;47.730;9.352;2023-04-15T10:11:26;95841.31;;;12.49;47.64
77120;BME280;66073;47.730;9.352;2023-04-15T10:13:53;95842.38;;;12.17;48.63
77120;BME280;66073;47.730;9.352;2023-04-15T10:16:20;95845.84;;;12.40;46.56
77120;BME280;66073;47.730;9.352;2023-04-15T10:18:55;95831.50;;;11.42;48.08
77120;BME280;66073;47.730;9.352;2023-04-15T10:21:21;95840.50;;;11.96;47.69
77120;BME280;66073;47.730;9.352;2023-04-15T10:23:48;95840.25;;;12.06;49.07
77120;BME280;66073;47.730;9.352;2023-04-15T10:26:15;95837.94;;;11.90;48.00
77120;BME280;66073;47.730;9.352;2023-04-15T10:28:42;95839.34;;;12.63;47.39
77120;BME280;66073;47.730;9.352;2023-04-15T10:31:11;95841.66;;;12.25;48.12
77120;BME280;66073;47.730;9.352;2023-04-15T10:33:38;95840.25;;;12.28;48.93
77120;BME280;66073;47.730;9.352;2023-04-15T10:36:05;95844.88;;;12.36;46.97
77120;BME280;66073;47.730;9.352;2023-04-15T10:38:41;95836.63;;;12.85;46.32
77120;BME280;66073;47.730;9.352;2023-04-15T10:41:21;95840.88;;;12.56;45.95
77120;BME280;66073;47.730;9.352;2023-04-15T10:44:00;95841.03;;;12.81;46.35
77120;BME280;66073;47.730;9.352;2023-04-15T10:46:39;95837.91;;;13.19;45.06
77120;BME280;66073;47.730;9.352;2023-04-15T10:49:27;95840.19;;;13.51;43.94
77120;BME280;66073;47.730;9.352;2023-04-15T10:51:58;95842.88;;;13.68;43.96
77120;BME280;66073;47.730;9.352;2023-04-15T10:57:08;95842.09;;;14.02;42.86
77120;BME280;66073;47.730;9.352;2023-04-15T11:02:38;95841.31;;;13.84;42.85
77120;BME280;66073;47.730;9.352;2023-04-15T11:05:04;95844.47;;;14.04;42.79
77120;BME280;66073;47.730;9.352;2023-04-15T11:07:36;95842.41;;;13.58;42.96
77120;BME280;66073;47.730;9.352;2023-04-15T11:12:43;95847.00;;;13.83;42.11
77120;BME280;66073;47.730;9.352;2023-04-15T11:18:08;95846.16;;;14.60;42.18
77120;BME280;66073;47.730;9.352;2023-04-15T11:20:36;95851.25;;;13.67;43.14
77120;BME280;66073;47.730;9.352;2023-04-15T11:23:03;95849.69;;;14.00;41.75
77120;BME280;66073;47.730;9.352;2023-04-15T11:25:30;95850.16;;;13.94;40.57
77120;BME280;66073;47.730;9.352;2023-04-15T11:28:00;95850.97;;;13.94;40.29
77120;BME280;66073;47.730;9.352;2023-04-15T11:30:32;95854.28;;;14.34;42.07
77120;BME280;66073;47.730;9.352;2023-04-15T11:33:00;95855.78;;;13.49;42.08
77120;BME280;66073;47.730;9.352;2023-04-15T11:35:25;95847.25;;;13.30;40.68
77120;BME280;66073;47.730;9.352;2023-04-15T11:37:51;95851.13;;;14.15;40.54
77120;BME280;66073;47.730;9.352;2023-04-15T11:40:29;95849.94;;;15.14;38.94
77120;BME280;66073;47.730;9.352;2023-04-15T11:43:09;95844.66;;;14.97;38.57
77120;BME280;66073;47.730;9.352;2023-04-15T11:45:52;95847.47;;;14.54;41.21
77120;BME280;66073;47.730;9.352;2023-04-15T11:48:20;95854.56;;;13.72;42.27
77120;BME280;66073;47.730;9.352;2023-04-15T11:51:05;95848.09;;;14.51;40.05
77120;BME280;66073;47.730;9.352;2023-04-15T11:53:40;95859.34;;;14.44;39.36
77120;BME280;66073;47.730;9.352;2023-04-15T11:56:09;95866.56;;;14.69;38.96
77120;BME280;66073;47.730;9.352;2023-04-15T11:58:36;95862.81;;;15.00;38.28
77120;BME280;66073;47.730;9.352;2023-04-15T12:01:04;95874.72;;;14.81;37.50
77120;BME280;66073;47.730;9.352;2023-04-15T12:03:41;95875.66;;;15.32;37.25
77120;BME280;66073;47.730;9.352;2023-04-15T12:06:22;95872.78;;;14.99;38.90
77120;BME280;66073;47.730;9.352;2023-04-15T12:11:16;95882.69;;;13.83;39.96
77120;BME280;66073;47.730;9.352;2023-04-15T12:13:49;95881.09;;;14.60;39.16
77120;BME280;66073;47.730;9.352;2023-04-15T12:16:20;95876.38;;;15.41;38.38
77120;BME280;66073;47.730;9.352;2023-04-15T12:18:54;95883.97;;;14.46;39.82
77120;BME280;66073;47.730;9.352;2023-04-15T12:21:27;95892.28;;;14.79;38.59
77120;BME280;66073;47.730;9.352;2023-04-15T12:23:55;95892.06;;;15.01;38.74
77120;BME280;66073;47.730;9.352;2023-04-15T12:26:26;95884.66;;;14.89;37.82
77120;BME280;66073;47.730;9.352;2023-04-15T12:29:09;95893.38;;;15.33;36.67
77120;BME280;66073;47.730;9.352;2023-04-15T12:31:35;95893.97;;;15.76;36.89
77120;BME280;66073;47.730;9.352;2023-04-15T12:34:06;95898.97;;;15.86;37.19
77120;BME280;66073;47.730;9.352;2023-04-15T12:36:32;95904.53;;;15.52;35.76
77120;BME280;66073;47.730;9.352;2023-04-15T12:39:02;95900.19;;;14.07;39.01
77120;BME280;66073;47.730;9.352;2023-04-15T12:41:29;95902.28;;;15.16;38.57
77120;BME280;66073;47.730;9.352;2023-04-15T12:43:54;95906.31;;;15.02;39.04
77120;BME280;66073;47.730;9.352;2023-04-15T12:46:20;95913.97;;;13.40;39.67
77120;BME280;66073;47.730;9.352;2023-04-15T12:48:46;95913.28;;;13.82;38.59
77120;BME280;66073;47.730;9.352;2023-04-15T12:51:11;95919.22;;;13.62;39.65
77120;BME280;66073;47.730;9.352;2023-04-15T12:53:37;95918.81;;;13.86;40.03
77120;BME280;66073;47.730;9.352;2023-04-15T12:56:02;95935.75;;;13.16;41.54
77120;BME280;66073;47.730;9.352;2023-04-15T12:58:28;95933.31;;;13.85;40.57
77120;BME280;66073;47.730;9.352;2023-04-15T13:00:53;95930.66;;;13.94;38.13
77120;BME280;66073;47.730;9.352;2023-04-15T13:03:19;95938.94;;;13.66;37.83
77120;BME280;66073;47.730;9.352;2023-04-15T13:05:45;95942.56;;;14.44;37.80
77120;BME280;66073;47.730;9.352;2023-04-15T13:08:10;95938.28;;;14.43;37.81
77120;BME280;66073;47.730;9.352;2023-04-15T13:10:36;95937.63;;;13.95;39.57
77120;BME280;66073;47.730;9.352;2023-04-15T13:13:02;95935.69;;;13.86;41.27
77120;BME280;66073;47.730;9.352;2023-04-15T13:15:28;95941.28;;;13.51;42.19
77120;BME280;66073;47.730;9.352;2023-04-15T13:17:53;95955.38;;;13.73;42.54
77120;BME280;66073;47.730;9.352;2023-04-15T13:20:19;95953.69;;;13.86;43.05
77120;BME280;66073;47.730;9.352;2023-04-15T13:22:45;95951.66;;;14.00;43.40